createdAt,value
2018-02-07T00:01:07.658Z,24.02
2018-02-07T00:03:35.065Z,19.08
2018-02-07T00:06:02.510Z,20.55
2018-02-07T00:08:29.995Z,21.00
2018-02-07T00:10:57.533Z,21.95
2018-02-07T00:13:24.977Z,17.37
2018-02-07T00:15:52.416Z,17.27
2018-02-07T00:18:19.850Z,15.20
2018-02-07T00:20:47.320Z,16.55
2018-02-07T00:23:14.756Z,17.67
2018-02-07T00:25:42.272Z,16.60
2018-02-07T00:28:09.732Z,17.40
2018-02-07T00:30:37.186Z,18.15
2018-02-07T00:33:04.640Z,16.55
2018-02-07T00:35:32.184Z,17.30
2018-02-07T00:37:59.654Z,14.90
2018-02-07T00:40:27.146Z,17.25
2018-02-07T00:42:54.616Z,17.42
2018-02-07T00:45:22.862Z,17.80
2018-02-07T00:47:51.140Z,15.73
2018-02-07T00:50:18.717Z,15.90
2018-02-07T00:52:46.157Z,16.35
2018-02-07T00:55:13.595Z,17.12
2018-02-07T00:57:41.028Z,18.87
2018-02-07T01:00:08.542Z,17.48
2018-02-07T01:02:36.701Z,17.60
2018-02-07T01:05:04.881Z,15.88
2018-02-07T01:07:33.142Z,15.85
2018-02-07T01:10:00.572Z,16.15
2018-02-07T01:12:28.028Z,16.08
2018-02-07T01:14:55.485Z,17.35
2018-02-07T01:17:23.693Z,16.85
2018-02-07T01:19:51.134Z,17.25
2018-02-07T01:22:19.332Z,16.37
2018-02-07T01:24:46.755Z,17.17
2018-02-07T01:27:14.202Z,16.90
2018-02-07T01:29:41.670Z,17.12
2018-02-07T01:32:09.157Z,15.55
2018-02-07T01:34:36.579Z,15.13
2018-02-07T01:37:04.085Z,15.43
2018-02-07T01:39:31.518Z,16.70
2018-02-07T01:41:59.701Z,15.85
2018-02-07T01:44:27.906Z,15.25
2018-02-07T01:46:55.362Z,15.65
2018-02-07T01:49:23.587Z,16.67
2018-02-07T01:51:51.038Z,15.48
2018-02-07T01:54:18.494Z,14.95
2018-02-07T01:56:46.681Z,14.75
2018-02-07T01:59:14.124Z,13.75
2018-02-07T02:01:41.579Z,15.15
2018-02-07T02:04:09.038Z,14.43
2018-02-07T02:06:36.461Z,13.50
2018-02-07T02:09:03.870Z,13.98
2018-02-07T02:11:31.306Z,13.88
2018-02-07T02:13:58.763Z,13.75
2018-02-07T02:16:26.945Z,12.50
2018-02-07T02:18:54.390Z,11.40
2018-02-07T02:21:21.898Z,13.43
2018-02-07T02:23:49.386Z,13.98
2018-02-07T02:26:16.822Z,13.50
2018-02-07T02:28:45.064Z,12.40
2018-02-07T02:31:12.466Z,13.10
2018-02-07T02:33:40.674Z,13.52
2018-02-07T02:36:20.054Z,12.98
2018-02-07T02:38:47.481Z,13.10
2018-02-07T02:41:15.701Z,12.60
2018-02-07T02:43:43.144Z,12.73
2018-02-07T02:46:11.322Z,14.13
2018-02-07T02:48:38.753Z,13.68
2018-02-07T02:51:06.214Z,14.23
2018-02-07T02:53:33.651Z,13.00
2018-02-07T02:56:01.122Z,13.05
2018-02-07T02:58:28.583Z,12.98
2018-02-07T03:00:56.021Z,13.70
2018-02-07T03:03:24.245Z,12.45
2018-02-07T03:05:51.693Z,13.05
2018-02-07T03:08:19.119Z,12.10
2018-02-07T03:10:46.661Z,13.50
2018-02-07T03:13:14.108Z,13.30
2018-02-07T03:15:41.529Z,12.50
2018-02-07T03:18:08.958Z,12.95
2018-02-07T03:20:36.387Z,12.65
2018-02-07T03:23:03.814Z,12.57
2018-02-07T03:25:31.253Z,14.07
2018-02-07T03:27:58.669Z,13.62
2018-02-07T03:30:26.205Z,12.27
2018-02-07T03:32:53.621Z,12.80
2018-02-07T03:35:21.047Z,13.18
2018-02-07T03:37:48.507Z,13.25
2018-02-07T03:40:15.943Z,13.02
2018-02-07T03:42:44.162Z,14.25
2018-02-07T03:45:12.425Z,12.35
2018-02-07T03:47:39.957Z,13.50
2018-02-07T03:50:07.409Z,12.68
2018-02-07T03:52:35.597Z,13.07
2018-02-07T03:55:03.072Z,13.15
2018-02-07T03:57:31.254Z,12.37
2018-02-07T03:59:58.737Z,13.07
2018-02-07T04:02:26.444Z,13.25
2018-02-07T04:04:53.904Z,13.85
2018-02-07T04:07:21.353Z,13.05
2018-02-07T04:09:48.812Z,13.15
2018-02-07T04:12:17.077Z,11.73
2018-02-07T04:14:45.321Z,12.55
2018-02-07T04:17:12.820Z,13.07
2018-02-07T04:19:40.322Z,12.85
2018-02-07T04:22:08.571Z,13.27
2018-02-07T04:24:36.074Z,13.93
2018-02-07T04:27:04.464Z,14.10
2018-02-07T04:29:32.114Z,13.65
2018-02-07T04:31:59.572Z,14.00
2018-02-07T04:34:27.010Z,12.32
2018-02-07T04:36:54.510Z,12.60
2018-02-07T04:39:21.926Z,13.43
2018-02-07T04:41:49.468Z,12.60
2018-02-07T04:44:16.962Z,12.52
2018-02-07T04:46:45.285Z,14.13
2018-02-07T04:49:13.505Z,13.82
2018-02-07T04:51:40.967Z,12.35
2018-02-07T04:54:08.393Z,13.02
2018-02-07T04:56:36.591Z,13.52
2018-02-07T04:59:04.110Z,12.35
2018-02-07T05:01:31.577Z,14.05
2018-02-07T05:03:59.129Z,12.13
2018-02-07T05:06:26.587Z,12.10
2018-02-07T05:08:54.105Z,12.35
2018-02-07T05:11:21.677Z,12.80
2018-02-07T05:13:49.202Z,13.02
2018-02-07T05:16:17.447Z,12.63
2018-02-07T05:18:44.905Z,12.55
2018-02-07T05:21:12.352Z,11.82
2018-02-07T05:23:39.798Z,13.35
2018-02-07T05:26:07.270Z,12.95
2018-02-07T05:28:35.560Z,12.48
2018-02-07T05:31:02.992Z,13.05
2018-02-07T05:33:30.448Z,12.77
2018-02-07T05:35:57.914Z,13.30
2018-02-07T05:38:25.369Z,13.27
2018-02-07T05:40:52.861Z,12.75
2018-02-07T05:43:20.350Z,12.88
2018-02-07T05:45:47.857Z,14.35
2018-02-07T05:48:15.311Z,13.20
2018-02-07T05:50:42.752Z,13.38
2018-02-07T05:53:10.309Z,12.98
2018-02-07T05:55:37.973Z,12.15
2018-02-07T05:58:05.537Z,13.98
2018-02-07T06:00:32.980Z,13.55
2018-02-07T06:03:00.410Z,13.77
2018-02-07T06:05:28.620Z,13.38
2018-02-07T06:07:56.090Z,14.77
2018-02-07T06:10:23.594Z,13.82
2018-02-07T06:12:51.202Z,13.50
2018-02-07T06:15:19.409Z,14.15
2018-02-07T06:17:46.862Z,13.02
2018-02-07T06:20:15.071Z,12.37
2018-02-07T06:22:42.522Z,13.73
2018-02-07T06:25:10.730Z,13.85
2018-02-07T06:27:38.189Z,13.05
2018-02-07T06:30:05.653Z,13.50
2018-02-07T06:32:33.916Z,13.55
2018-02-07T06:35:01.374Z,14.10
2018-02-07T06:37:28.840Z,13.62
2018-02-07T06:39:56.270Z,13.80
2018-02-07T06:42:23.718Z,14.02
2018-02-07T06:44:51.210Z,14.18
2018-02-07T06:47:18.631Z,14.13
2018-02-07T06:49:47.556Z,14.82
2018-02-07T06:52:14.994Z,13.80
2018-02-07T06:54:42.414Z,14.50
2018-02-07T06:57:10.674Z,14.43
2018-02-07T06:59:38.206Z,14.30
2018-02-07T07:02:05.636Z,13.93
2018-02-07T07:04:33.814Z,13.80
2018-02-07T07:07:01.315Z,14.38
2018-02-07T07:09:28.774Z,14.48
2018-02-07T07:11:56.223Z,14.75
2018-02-07T07:14:24.458Z,14.70
2018-02-07T07:16:51.874Z,14.38
2018-02-07T07:19:20.069Z,14.80
2018-02-07T07:21:48.315Z,15.10
2018-02-07T07:24:15.766Z,14.85
2018-02-07T07:26:43.201Z,15.75
2018-02-07T07:29:10.681Z,16.58
2018-02-07T07:31:38.914Z,15.60
2018-02-07T07:34:06.450Z,15.70
2018-02-07T07:36:33.878Z,14.95
2018-02-07T07:39:02.166Z,15.85
2018-02-07T07:41:29.634Z,14.32
2018-02-07T07:43:57.041Z,15.80
2018-02-07T07:46:24.473Z,16.00
2018-02-07T07:48:52.690Z,15.40
2018-02-07T07:51:20.158Z,16.00
2018-02-07T07:53:47.721Z,15.45
2018-02-07T07:56:15.919Z,15.40
2018-02-07T07:58:43.411Z,16.33
2018-02-07T08:01:10.831Z,15.85
2018-02-07T08:03:38.336Z,16.58
2018-02-07T08:06:05.790Z,16.58
2018-02-07T08:08:33.264Z,15.93
2018-02-07T08:11:01.485Z,15.05
2018-02-07T08:13:28.934Z,16.37
2018-02-07T08:15:56.399Z,17.50
2018-02-07T08:18:23.814Z,16.60
2018-02-07T08:20:51.305Z,16.87
2018-02-07T08:23:19.520Z,16.60
2018-02-07T08:25:46.949Z,17.95
2018-02-07T08:28:15.150Z,16.42
2018-02-07T08:30:43.355Z,17.70
2018-02-07T08:33:10.842Z,17.12
2018-02-07T08:35:38.262Z,17.40
2018-02-07T08:38:06.493Z,17.30
2018-02-07T08:40:33.950Z,17.90
2018-02-07T08:43:01.408Z,17.85
2018-02-07T08:45:28.821Z,18.02
2018-02-07T08:47:56.357Z,18.37
2018-02-07T08:50:24.524Z,19.50
2018-02-07T08:52:52.730Z,18.70
2018-02-07T08:55:20.178Z,18.40
2018-02-07T08:57:47.713Z,18.05
2018-02-07T09:00:15.120Z,19.20
2018-02-07T09:02:42.547Z,18.33
2018-02-07T09:05:09.981Z,17.60
2018-02-07T09:07:37.409Z,18.12
2018-02-07T09:10:05.628Z,18.20
2018-02-07T09:12:33.049Z,17.90
2018-02-07T09:15:00.477Z,17.12
2018-02-07T09:17:27.932Z,17.05
2018-02-07T09:19:55.500Z,17.98
2018-02-07T09:22:23.694Z,18.33
2018-02-07T09:24:51.260Z,18.83
2018-02-07T09:27:19.418Z,17.65
2018-02-07T09:29:47.621Z,17.35
2018-02-07T09:32:15.029Z,18.95
2018-02-07T09:34:42.464Z,18.40
2018-02-07T09:37:09.890Z,15.52
2018-02-07T09:39:37.307Z,16.70
2018-02-07T09:42:04.722Z,19.33
2018-02-07T09:44:32.145Z,18.20
2018-02-07T09:46:59.546Z,19.15
2018-02-07T09:49:26.995Z,18.92
2018-02-07T09:51:54.434Z,18.20
2018-02-07T09:54:21.842Z,18.80
2018-02-07T09:56:49.294Z,17.23
2018-02-07T09:59:16.749Z,18.87
2018-02-07T10:01:44.154Z,18.25
2018-02-07T10:04:11.624Z,18.73
2018-02-07T10:06:39.042Z,18.27
2018-02-07T10:09:06.552Z,17.37
2018-02-07T10:11:33.966Z,17.83
2018-02-07T10:14:02.170Z,19.17
2018-02-07T10:16:29.662Z,18.20
2018-02-07T10:18:57.101Z,19.37
2018-02-07T10:21:24.591Z,18.73
2018-02-07T10:23:51.991Z,17.27
2018-02-07T10:26:19.572Z,17.80
2018-02-07T10:28:46.981Z,19.08
2018-02-07T10:31:14.405Z,18.50
2018-02-07T10:33:41.820Z,19.55
2018-02-07T10:36:09.245Z,19.10
2018-02-07T10:38:36.678Z,18.35
2018-02-07T10:41:04.125Z,18.77
2018-02-07T10:43:31.546Z,18.40
2018-02-07T10:45:59.001Z,19.30
2018-02-07T10:48:26.501Z,19.27
2018-02-07T10:50:53.939Z,17.75
2018-02-07T10:53:21.378Z,18.00
2018-02-07T10:55:48.913Z,17.37
2018-02-07T10:58:17.109Z,18.62
2018-02-07T11:00:45.368Z,17.85
2018-02-07T11:03:12.839Z,19.42
2018-02-07T11:05:40.253Z,19.17
2018-02-07T11:08:08.486Z,19.05
2018-02-07T11:10:35.929Z,19.15
2018-02-07T11:13:03.324Z,16.33
2018-02-07T11:15:30.746Z,16.83
2018-02-07T11:17:58.165Z,16.70
2018-02-07T11:20:26.409Z,16.35
2018-02-07T11:22:53.836Z,17.30
2018-02-07T11:25:21.262Z,17.85
2018-02-07T11:27:48.687Z,18.27
2018-02-07T11:30:16.128Z,18.73
2018-02-07T11:32:43.537Z,18.00
2018-02-07T11:35:10.967Z,19.00
2018-02-07T11:37:39.169Z,19.00
2018-02-07T11:40:07.364Z,19.00
2018-02-07T11:42:34.802Z,18.60
2018-02-07T11:45:02.218Z,18.77
2018-02-07T11:47:29.694Z,18.90
2018-02-07T11:49:57.126Z,18.23
2018-02-07T11:52:25.301Z,20.70
2018-02-07T11:54:53.485Z,19.00
2018-02-07T11:57:20.915Z,19.70
2018-02-07T11:59:48.466Z,19.90
2018-02-07T12:02:15.862Z,21.20
2018-02-07T12:04:43.400Z,21.80
2018-02-07T12:07:11.574Z,19.80
2018-02-07T12:09:39.012Z,21.17
2018-02-07T12:12:06.562Z,21.27
2018-02-07T12:14:33.985Z,20.93
2018-02-07T12:17:02.175Z,20.90
2018-02-07T12:19:30.376Z,22.50
2018-02-07T12:21:57.850Z,20.50
2018-02-07T12:24:25.308Z,19.00
2018-02-07T12:26:53.737Z,18.70
2018-02-07T12:29:21.133Z,19.80
2018-02-07T12:31:49.362Z,20.97
2018-02-07T12:34:16.803Z,19.50
2018-02-07T12:36:45.027Z,20.30
2018-02-07T12:39:12.458Z,19.33
2018-02-07T12:41:40.672Z,20.13
2018-02-07T12:44:08.093Z,21.27
2018-02-07T12:46:35.517Z,21.37
2018-02-07T12:49:02.946Z,20.47
2018-02-07T12:51:31.176Z,21.33
2018-02-07T12:53:58.607Z,19.90
2018-02-07T12:56:26.822Z,19.90
2018-02-07T12:58:54.253Z,18.90
2018-02-07T13:01:22.503Z,19.50
2018-02-07T13:03:49.958Z,20.20
2018-02-07T13:06:17.410Z,19.93
2018-02-07T13:08:44.838Z,19.43
2018-02-07T13:11:13.035Z,19.30
2018-02-07T13:13:41.214Z,19.83
2018-02-07T13:16:09.405Z,20.20
2018-02-07T13:18:37.577Z,20.63
2018-02-07T13:21:05.790Z,21.50
2018-02-07T13:23:33.972Z,20.37
2018-02-07T13:26:02.173Z,19.77
2018-02-07T13:28:29.590Z,21.57
2018-02-07T13:30:57.115Z,19.30
2018-02-07T13:33:25.286Z,21.67
2018-02-07T13:35:53.484Z,21.70
2018-02-07T13:38:20.966Z,19.93
2018-02-07T13:40:48.678Z,20.97
2018-02-07T13:43:17.597Z,21.30
2018-02-07T13:45:45.789Z,20.60
2018-02-07T13:48:13.993Z,20.37
2018-02-07T13:50:41.470Z,21.00
2018-02-07T13:53:08.910Z,21.30
2018-02-07T13:55:37.125Z,20.90
2018-02-07T13:58:04.558Z,20.80
2018-02-07T14:00:39.073Z,21.70
2018-02-07T14:03:06.497Z,21.23
2018-02-07T14:05:33.921Z,21.90
2018-02-07T14:08:01.347Z,21.93
2018-02-07T14:10:28.790Z,21.60
2018-02-07T14:12:56.250Z,20.90
2018-02-07T14:15:24.534Z,21.93
2018-02-07T14:17:51.946Z,22.07
2018-02-07T14:20:19.516Z,22.03
2018-02-07T14:22:46.942Z,20.50
2018-02-07T14:25:14.354Z,22.90
2018-02-07T14:27:41.838Z,21.47
2018-02-07T14:30:09.267Z,20.60
2018-02-07T14:32:36.845Z,21.93
2018-02-07T14:35:05.014Z,22.30
2018-02-07T14:37:32.484Z,22.03
2018-02-07T14:40:00.653Z,23.83
2018-02-07T14:42:28.841Z,25.70
2018-02-07T14:44:57.045Z,22.10
2018-02-07T14:47:24.550Z,23.10
2018-02-07T14:49:52.010Z,22.87
2018-02-07T14:52:19.473Z,23.30
2018-02-07T14:54:46.932Z,21.50
2018-02-07T14:57:15.106Z,22.57
2018-02-07T14:59:42.582Z,22.57
2018-02-07T15:02:10.069Z,21.07
2018-02-07T15:04:37.510Z,22.40
2018-02-07T15:07:05.673Z,21.97
2018-02-07T15:09:33.196Z,20.73
2018-02-07T15:12:00.650Z,21.90
2018-02-07T15:14:28.120Z,20.15
2018-02-07T15:16:55.591Z,21.20
2018-02-07T15:19:23.009Z,20.45
2018-02-07T15:21:50.440Z,19.25
2018-02-07T15:24:17.901Z,19.90
2018-02-07T15:26:45.310Z,20.80
2018-02-07T15:29:12.742Z,19.60
2018-02-07T15:31:40.206Z,19.15
2018-02-07T15:34:07.640Z,20.80
2018-02-07T15:36:35.238Z,21.45
2018-02-07T15:39:03.426Z,21.90
2018-02-07T15:41:30.860Z,22.87
2018-02-07T15:43:59.037Z,21.75
2018-02-07T15:46:26.578Z,21.75
2018-02-07T15:48:54.062Z,21.37
2018-02-07T15:51:21.498Z,21.80
2018-02-07T15:53:48.986Z,21.27
2018-02-07T15:56:16.417Z,19.60
2018-02-07T15:58:44.091Z,20.80
2018-02-07T16:01:11.665Z,17.70
2018-02-07T16:03:39.961Z,23.02
2018-02-07T16:06:07.385Z,22.95
2018-02-07T16:08:34.806Z,21.77
2018-02-07T16:11:02.219Z,21.98
2018-02-07T16:13:29.646Z,21.90
2018-02-07T16:15:57.077Z,23.87
2018-02-07T16:18:25.293Z,22.90
2018-02-07T16:20:52.781Z,23.80
2018-02-07T16:23:20.205Z,23.35
2018-02-07T16:25:47.727Z,24.52
2018-02-07T16:28:15.837Z,21.70
2018-02-07T16:30:44.031Z,22.67
2018-02-07T16:33:12.237Z,22.05
2018-02-07T16:35:40.460Z,21.27
2018-02-07T16:38:07.929Z,22.23
2018-02-07T16:40:35.366Z,20.58
2018-02-07T16:43:02.811Z,21.08
2018-02-07T16:45:30.238Z,17.00
2018-02-07T16:47:57.646Z,19.90
2018-02-07T16:50:25.822Z,18.48
2018-02-07T16:52:53.306Z,21.40
2018-02-07T16:55:20.852Z,21.98
2018-02-07T16:57:48.271Z,20.40
2018-02-07T17:00:15.705Z,20.20
2018-02-07T17:02:43.133Z,20.67
2018-02-07T17:05:10.565Z,20.92
2018-02-07T17:07:38.510Z,21.00
2018-02-07T17:10:06.042Z,20.75
2018-02-07T17:12:33.446Z,20.33
2018-02-07T17:15:00.860Z,20.70
2018-02-07T17:17:28.334Z,20.77
2018-02-07T17:19:55.750Z,21.08
2018-02-07T17:22:23.941Z,20.05
2018-02-07T17:24:51.361Z,19.58
2018-02-07T17:27:18.786Z,20.88
2018-02-07T17:29:46.977Z,22.70
2018-02-07T17:32:15.522Z,20.90
2018-02-07T17:34:43.018Z,18.85
2018-02-07T17:37:10.430Z,18.25
2018-02-07T17:39:37.912Z,23.45
2018-02-07T17:42:05.369Z,21.33
2018-02-07T17:44:32.838Z,20.65
2018-02-07T17:47:00.305Z,20.60
2018-02-07T17:49:27.733Z,21.40
2018-02-07T17:51:55.144Z,22.75
2018-02-07T17:54:22.637Z,22.23
2018-02-07T17:56:50.097Z,23.60
2018-02-07T17:59:17.538Z,23.12
2018-02-07T18:01:45.744Z,23.60
2018-02-07T18:04:13.174Z,21.12
2018-02-07T18:06:41.394Z,22.60
2018-02-07T18:09:08.868Z,23.15
2018-02-07T18:11:37.155Z,24.20
2018-02-07T18:14:04.574Z,25.05
2018-02-07T18:16:31.998Z,21.52
2018-02-07T18:18:59.457Z,24.90
2018-02-07T18:21:26.881Z,24.80
2018-02-07T18:23:54.303Z,25.20
2018-02-07T18:26:21.734Z,23.73
2018-02-07T18:28:49.930Z,26.83
2018-02-07T18:31:18.157Z,25.20
2018-02-07T18:33:45.612Z,25.42
2018-02-07T18:36:13.017Z,25.73
2018-02-07T18:38:40.466Z,24.92
2018-02-07T18:41:07.918Z,23.62
2018-02-07T18:43:35.386Z,22.70
2018-02-07T18:46:02.846Z,23.83
2018-02-07T18:48:30.275Z,21.90
2018-02-07T18:50:57.713Z,24.80
2018-02-07T18:53:25.130Z,22.73
2018-02-07T18:55:53.320Z,24.35
2018-02-07T18:58:21.533Z,24.42
2018-02-07T19:00:48.954Z,23.77
2018-02-07T19:03:17.146Z,24.83
2018-02-07T19:05:45.321Z,23.50
2018-02-07T19:08:12.755Z,24.08
2018-02-07T19:10:40.180Z,19.10
2018-02-07T19:13:08.358Z,24.48
2018-02-07T19:15:36.532Z,24.95
2018-02-07T19:18:04.039Z,21.67
2018-02-07T19:20:31.513Z,22.85
2018-02-07T19:22:58.929Z,24.33
2018-02-07T19:25:26.358Z,24.55
2018-02-07T19:27:53.793Z,23.27
2018-02-07T19:30:22.017Z,25.23
2018-02-07T19:32:49.427Z,22.90
2018-02-07T19:35:16.849Z,22.13
2018-02-07T19:37:44.311Z,25.50
2018-02-07T19:40:11.764Z,24.25
2018-02-07T19:42:39.174Z,22.33
2018-02-07T19:45:06.602Z,23.50
2018-02-07T19:47:34.054Z,25.08
2018-02-07T19:50:01.553Z,25.33
2018-02-07T19:52:29.014Z,24.77
2018-02-07T19:54:56.507Z,25.00
2018-02-07T19:57:24.043Z,25.25
2018-02-07T19:59:51.499Z,23.17
2018-02-07T20:02:19.098Z,24.65
2018-02-07T20:04:47.261Z,23.80
2018-02-07T20:07:15.458Z,25.40
2018-02-07T20:09:42.889Z,25.60
2018-02-07T20:12:10.329Z,26.85
2018-02-07T20:14:37.778Z,26.20
2018-02-07T20:17:05.189Z,25.05
2018-02-07T20:19:32.591Z,24.90
2018-02-07T20:22:00.802Z,25.20
2018-02-07T20:24:28.222Z,26.37
2018-02-07T20:26:55.674Z,25.55
2018-02-07T20:29:23.065Z,24.37
2018-02-07T20:31:51.290Z,27.27
2018-02-07T20:34:18.699Z,28.25
2018-02-07T20:36:46.220Z,28.35
2018-02-07T20:39:14.518Z,25.65
2018-02-07T20:41:41.938Z,26.73
2018-02-07T20:44:09.342Z,26.40
2018-02-07T20:46:36.810Z,26.70
2018-02-07T20:49:04.243Z,25.10
2018-02-07T20:51:31.699Z,26.95
2018-02-07T20:53:59.106Z,25.60
2018-02-07T20:56:26.581Z,25.02
2018-02-07T20:58:54.007Z,25.05
2018-02-07T21:01:21.459Z,24.30
2018-02-07T21:03:48.886Z,24.65
2018-02-07T21:06:16.361Z,24.15
2018-02-07T21:08:43.802Z,25.02
2018-02-07T21:11:12.107Z,24.70
2018-02-07T21:13:40.282Z,25.10
2018-02-07T21:16:08.510Z,25.55
2018-02-07T21:18:35.922Z,26.23
2018-02-07T21:21:04.163Z,24.40
2018-02-07T21:23:31.610Z,23.87
2018-02-07T21:25:59.041Z,23.30
2018-02-07T21:28:26.574Z,24.20
2018-02-07T21:30:54.000Z,23.90
2018-02-07T21:33:22.203Z,19.10
2018-02-07T21:35:50.181Z,23.77
2018-02-07T21:38:17.656Z,22.80
2018-02-07T21:40:45.077Z,23.55
2018-02-07T21:43:12.510Z,24.20
2018-02-07T21:45:39.966Z,23.75
2018-02-07T21:48:07.426Z,23.35
2018-02-07T21:50:34.900Z,23.25
2018-02-07T21:53:02.326Z,23.20
2018-02-07T21:55:29.755Z,24.45
2018-02-07T21:57:57.171Z,23.77
2018-02-07T22:00:25.417Z,23.58
2018-02-07T22:02:52.865Z,20.85
2018-02-07T22:05:20.436Z,23.67
2018-02-07T22:07:47.879Z,25.10
2018-02-07T22:10:16.187Z,23.10
2018-02-07T22:12:43.618Z,24.50
2018-02-07T22:15:11.868Z,23.70
2018-02-07T22:17:39.289Z,24.90
2018-02-07T22:20:07.477Z,22.17
2018-02-07T22:22:35.764Z,21.95
2018-02-07T22:25:03.974Z,23.15
2018-02-07T22:27:31.414Z,23.17
2018-02-07T22:29:59.605Z,23.45
2018-02-07T22:32:27.813Z,24.10
2018-02-07T22:34:55.279Z,24.33
2018-02-07T22:37:22.761Z,24.10
2018-02-07T22:39:50.235Z,24.48
2018-02-07T22:42:17.637Z,24.50
2018-02-07T22:44:45.070Z,24.60
2018-02-07T22:47:12.485Z,21.95
2018-02-07T22:49:39.930Z,22.55
2018-02-07T22:52:07.332Z,23.05
2018-02-07T22:54:35.518Z,21.90
2018-02-07T22:57:03.695Z,22.67
2018-02-07T22:59:31.950Z,21.58
2018-02-07T23:01:59.361Z,22.02
2018-02-07T23:04:26.920Z,21.92
2018-02-07T23:06:54.387Z,22.87
2018-02-07T23:09:21.928Z,21.50
2018-02-07T23:11:50.167Z,22.08
2018-02-07T23:14:17.613Z,24.00
2018-02-07T23:16:45.033Z,22.02
2018-02-07T23:19:12.485Z,21.62
2018-02-07T23:21:39.920Z,19.90
2018-02-07T23:24:07.390Z,20.33
2018-02-07T23:26:34.810Z,20.95
2018-02-07T23:29:03.018Z,20.40
2018-02-07T23:31:31.212Z,19.67
2018-02-07T23:33:59.426Z,20.75
2018-02-07T23:36:26.990Z,20.27
2018-02-07T23:38:54.463Z,19.75
2018-02-07T23:41:21.922Z,19.73
2018-02-07T23:43:49.398Z,18.90
2018-02-07T23:46:16.818Z,19.50
2018-02-07T23:48:44.267Z,20.15
2018-02-07T23:51:11.696Z,20.40
2018-02-07T23:53:39.125Z,18.48
2018-02-07T23:56:06.551Z,16.90
2018-02-07T23:58:33.992Z,19.17
